Time;durP1;ratioP1;P1;durP2;ratioP2;P2;SDS_P1;SDS_P2;PMS_P1;PMS_P2;Temp;Humidity;BMP_temperature;BMP_pressure;BME280_temperature;BME280_humidity;BME280_pressure;Samples;Min_cycle;Max_cycle;Signal;HPM_P1;HPM_P2
2021/01/14 00:00:32;;;;;;;2.13;0.75;;;;;;;;;;6273451;22;20779;-77
2021/01/14 00:02:57;;;;;;;1.23;0.82;;;2.70;99.90;;;;;;6299976;22;20776;-77
2021/01/14 00:05:23;;;;;;;1.00;0.77;;;2.30;99.90;;;;;;6301340;22;20003;-77
2021/01/14 00:07:50;;;;;;;1.20;0.85;;;2.20;99.90;;;;;;6301907;22;20003;-77
2021/01/14 00:10:17;;;;;;;3.70;0.90;;;2.20;99.90;;;;;;6274457;22;20033;-77
2021/01/14 00:12:43;;;;;;;1.02;0.80;;;2.20;99.90;;;;;;6273384;22;20372;-76
2021/01/14 00:15:11;;;;;;;2.47;0.77;;;2.10;99.90;;;;;;6274894;22;19999;-77
2021/01/14 00:17:36;;;;;;;1.05;0.80;;;2.20;99.90;;;;;;6303908;22;20066;-76
2021/01/14 00:20:09;;;;;;;1.00;0.77;;;2.20;99.90;;;;;;6303874;22;20027;-76
2021/01/14 00:22:35;;;;;;;2.20;0.70;;;2.30;99.90;;;;;;6275813;22;20060;-77
2021/01/14 00:25:01;;;;;;;1.00;0.63;;;2.20;99.90;;;;;;6304590;22;20031;-76
2021/01/14 00:27:26;;;;;;;0.88;0.70;;;2.20;99.90;;;;;;6276756;22;20000;-76
2021/01/14 00:29:52;;;;;;;1.27;0.75;;;2.20;99.90;;;;;;6304291;22;19991;-77
2021/01/14 00:32:18;;;;;;;1.27;0.80;;;2.20;99.90;;;;;;6303233;22;20041;-76
2021/01/14 00:34:43;;;;;;;0.75;0.73;;;2.10;99.90;;;;;;6303796;22;20305;-77
2021/01/14 00:39:55;;;;;;;2.05;0.98;;;1.90;99.90;;;;;;6304590;22;20006;-76
2021/01/14 00:42:21;;;;;;;1.27;0.75;;;;;;;;;;6305076;22;20014;-75
2021/01/14 00:44:47;;;;;;;1.10;0.73;;;;;;;;;;6278385;22;20004;-76
2021/01/14 00:47:13;;;;;;;2.67;0.95;;;;;;;;;;6277259;22;20000;-75
2021/01/14 00:49:39;;;;;;;2.72;1.05;;;;;;;;;;6303069;22;20057;-76
2021/01/14 00:52:05;;;;;;;1.20;0.90;;;;;;;;;;6275324;22;20495;-76
2021/01/14 00:54:31;;;;;;;1.45;0.90;;;;;;;;;;6275904;22;20010;-77
2021/01/14 00:56:57;;;;;;;3.72;1.15;;;;;;;;;;6303158;22;20004;-74
2021/01/14 00:59:23;;;;;;;2.00;1.20;;;;;;;;;;6275743;22;20006;-75
2021/01/14 01:01:49;;;;;;;1.73;1.10;;;;;;;;;;6302250;22;19996;-76
2021/01/14 01:04:15;;;;;;;2.67;1.42;;;;;;;;;;6275517;22;20082;-77
2021/01/14 01:06:41;;;;;;;1.98;1.20;;;;;;;;;;6275966;22;20017;-76
2021/01/14 01:09:09;;;;;;;3.35;1.13;;;;;;;;;;6276503;22;20003;-76
2021/01/14 01:11:35;;;;;;;1.40;1.00;;;;;;;;;;6302632;22;20371;-76
2021/01/14 01:14:01;;;;;;;2.10;1.00;;;;;;;;;;6303946;22;20762;-76
2021/01/14 01:16:26;;;;;;;1.33;0.93;;;1.90;99.90;;;;;;6277162;22;20000;-76
2021/01/14 01:18:52;;;;;;;1.38;0.93;;;1.70;99.90;;;;;;6304156;22;20121;-77
2021/01/14 01:21:18;;;;;;;1.27;0.82;;;1.60;99.90;;;;;;6303732;22;20121;-75
2021/01/14 01:23:44;;;;;;;1.88;1.15;;;1.80;99.90;;;;;;6303763;22;20132;-76
2021/01/14 01:26:15;;;;;;;1.85;1.00;;;1.90;99.90;;;;;;6277009;22;20007;-76
2021/01/14 01:28:40;;;;;;;2.60;0.90;;;2.00;99.90;;;;;;6304612;22;20087;-76
2021/01/14 01:31:06;;;;;;;2.78;1.00;;;1.90;99.90;;;;;;6301011;22;20034;-75
2021/01/14 01:33:32;;;;;;;1.58;0.95;;;;;;;;;;6302062;22;20014;-74
2021/01/14 01:35:58;;;;;;;1.42;0.95;;;;;;;;;;6303311;22;20345;-75
2021/01/14 01:38:24;;;;;;;1.45;1.00;;;;;;;;;;6303534;22;20003;-76
2021/01/14 01:40:56;;;;;;;1.27;0.80;;;;;;;;;;6302557;22;19991;-76
2021/01/14 01:43:23;;;;;;;2.03;0.80;;;;;;;;;;6276087;22;20427;-76
2021/01/14 01:45:50;;;;;;;1.37;0.80;;;;;;;;;;6303428;22;20004;-75
2021/01/14 01:48:17;;;;;;;1.85;0.82;;;;;;;;;;6302945;22;19995;-76
2021/01/14 01:50:44;;;;;;;0.82;0.70;;;;;;;;;;6303159;22;20000;-76
2021/01/14 01:53:11;;;;;;;3.58;0.93;;;;;;;;;;6303063;22;20007;-75
2021/01/14 01:55:37;;;;;;;0.85;0.68;;;;;;;;;;6303237;22;20000;-75
2021/01/14 01:58:04;;;;;;;1.70;0.73;;;;;;;;;;6275766;22;20039;-75
2021/01/14 02:00:30;;;;;;;1.13;0.83;;;;;;;;;;6302946;22;20000;-76
2021/01/14 02:02:56;;;;;;;2.17;0.70;;;;;;;;;;6302240;22;20000;-77
2021/01/14 02:05:22;;;;;;;1.08;0.70;;;;;;;;;;6302840;22;20026;-76
2021/01/14 02:08:03;;;;;;;1.17;0.80;;;;;;;;;;6275525;22;20007;-75
2021/01/14 02:10:31;;;;;;;1.08;0.70;;;;;;;;;;6302762;22;20428;-78
2021/01/14 02:13:00;;;;;;;1.48;0.75;;;;;;;;;;6302246;22;20045;-76
2021/01/14 02:15:27;;;;;;;3.25;0.90;;;;;;;;;;6302810;22;20450;-77
2021/01/14 02:17:53;;;;;;;1.93;0.80;;;;;;;;;;6302774;22;20002;-75
2021/01/14 02:20:21;;;;;;;1.92;1.15;;;;;;;;;;6274867;22;19999;-76
2021/01/14 02:22:54;;;;;;;2.78;0.70;;;;;;;;;;6302025;22;19999;-75
2021/01/14 02:25:24;;;;;;;1.42;0.60;;;;;;;;;;6302564;22;20615;-75
2021/01/14 02:27:51;;;;;;;6.05;0.70;;;;;;;;;;6275167;22;20011;-75
2021/01/14 02:30:17;;;;;;;1.42;0.80;;;;;;;;;;6297318;22;20083;-74
2021/01/14 02:32:44;;;;;;;2.20;0.70;;;;;;;;;;6294368;22;20049;-75
2021/01/14 02:35:10;;;;;;;0.93;0.63;;;;;;;;;;6275273;22;20003;-75
2021/01/14 02:37:36;;;;;;;0.70;0.50;;;;;;;;;;6302207;22;20437;-75
2021/01/14 02:40:04;;;;;;;1.33;0.80;;;;;;;;;;6274548;22;20604;-74
2021/01/14 02:42:30;;;;;;;2.05;0.57;;;;;;;;;;6274425;22;20011;-75
2021/01/14 02:44:56;;;;;;;2.58;0.80;;;;;;;;;;6302164;22;20006;-75
2021/01/14 02:47:22;;;;;;;2.60;0.80;;;;;;;;;;6275235;22;20090;-75
2021/01/14 02:49:55;;;;;;;1.90;0.90;;;;;;;;;;6302572;22;20040;-75
2021/01/14 02:52:23;;;;;;;2.85;0.88;;;;;;;;;;6274187;22;20060;-75
2021/01/14 02:54:49;;;;;;;;;;;;;;;;;;6275298;22;20000;-75
2021/01/14 02:57:16;;;;;;;4.45;1.05;;;;;;;;;;6302430;22;19926;-75
2021/01/14 02:59:43;;;;;;;2.00;0.88;;;;;;;;;;6275058;22;20011;-75
2021/01/14 03:02:09;;;;;;;4.57;0.90;;;;;;;;;;6303408;22;20082;-75
2021/01/14 03:04:35;;;;;;;1.63;0.88;;;;;;;;;;6304332;22;20089;-75
2021/01/14 03:07:01;;;;;;;2.55;1.00;;;;;;;;;;6304980;22;20003;-76
2021/01/14 03:09:27;;;;;;;2.67;0.73;;;;;;;;;;6304761;22;20006;-75
2021/01/14 03:11:53;;;;;;;2.63;0.85;;;;;;;;;;6276825;22;20334;-76
2021/01/14 03:14:19;;;;;;;4.38;1.00;;;;;;;;;;6277802;22;20007;-76
2021/01/14 03:16:45;;;;;;;2.72;1.00;;;;;;;;;;6304659;22;19999;-77
2021/01/14 03:19:11;;;;;;;4.20;0.90;;;;;;;;;;6277529;22;20049;-75
2021/01/14 03:21:37;;;;;;;1.95;0.70;;;;;;;;;;6303913;22;20324;-76
2021/01/14 03:24:03;;;;;;;3.80;0.98;;;;;;;;;;6304588;22;20006;-75
2021/01/14 03:26:29;;;;;;;2.13;1.10;;;;;;;;;;6276723;22;20005;-75
2021/01/14 03:28:55;;;;;;;1.73;0.90;;;;;;;;;;6304924;22;19999;-76
2021/01/14 03:31:21;;;;;;;1.92;0.90;;;;;;;;;;6303389;22;20007;-75
2021/01/14 03:33:49;;;;;;;3.20;0.93;;;;;;;;;;6304800;22;20079;-75
2021/01/14 03:36:15;;;;;;;;;;;;;;;;;;6304516;22;20007;-76
2021/01/14 03:38:41;;;;;;;6.28;1.08;;;;;;;;;;6277173;22;19956;-75
2021/01/14 03:41:11;;;;;;;3.42;1.10;;;;;;;;;;6276843;22;19999;-75
2021/01/14 03:43:37;;;;;;;2.72;1.15;;;;;;;;;;6304743;22;19999;-75
2021/01/14 03:46:10;;;;;;;2.88;1.10;;;;;;;;;;6304454;22;20419;-75
2021/01/14 03:48:38;;;;;;;2.45;1.25;;;;;;;;;;6304688;22;20038;-77
2021/01/14 03:51:05;;;;;;;1.92;1.10;;;;;;;;;;6304614;22;20007;-76
2021/01/14 03:53:31;;;;;;;2.90;1.30;;;;;;;;;;6279379;22;20038;-77
2021/01/14 03:55:57;;;;;;;2.88;1.23;;;;;;;;;;6306576;22;19999;-76
2021/01/14 03:58:23;;;;;;;2.17;1.10;;;;;;;;;;6306662;22;20122;-75
2021/01/14 04:00:49;;;;;;;2.38;1.50;;;;;;;;;;6305814;22;20071;-75
2021/01/14 04:03:16;;;;;;;4.00;1.42;;;;;;;;;;6277037;22;20356;-74
2021/01/14 04:05:42;;;;;;;;;;;;;;;;;;6304149;22;20083;-77
2021/01/14 04:08:08;;;;;;;2.42;1.30;;;;;;;;;;6276864;22;20322;-76
2021/01/14 04:10:34;;;;;;;2.60;1.50;;;;;;;;;;6304505;22;20007;-75
2021/01/14 04:13:00;;;;;;;4.97;1.73;;;;;;;;;;6302520;22;20004;-76
2021/01/14 04:15:27;;;;;;;5.32;1.50;;;;;;;;;;6303197;22;20007;-76
2021/01/14 04:17:53;;;;;;;2.67;1.58;;;;;;;;;;6303976;22;20007;-75
2021/01/14 04:20:19;;;;;;;5.57;1.60;;;;;;;;;;6303653;22;20331;-76
2021/01/14 04:22:45;;;;;;;2.78;1.52;;;;;;;;;;6302507;22;20439;-76
2021/01/14 04:25:11;;;;;;;5.28;1.70;;;;;;;;;;6303525;22;19995;-76
2021/01/14 04:27:37;;;;;;;3.38;1.67;;;;;;;;;;6276115;22;20003;-76
2021/01/14 04:30:04;;;;;;;4.40;1.77;;;;;;;;;;6303124;22;20436;-77
2021/01/14 04:32:31;;;;;;;4.25;1.63;;;;;;;;;;6302441;22;20400;-77
2021/01/14 04:34:58;;;;;;;4.35;2.10;;;;;;;;;;6303089;22;19996;-75
2021/01/14 04:37:24;;;;;;;3.95;1.63;;;;;;;;;;6303413;22;20117;-77
2021/01/14 04:39:50;;;;;;;5.60;1.85;;;;;;;;;;6275847;22;20007;-75
2021/01/14 04:42:18;;;;;;;6.32;2.25;;;;;;;;;;6302701;22;20004;-76
2021/01/14 04:44:44;;;;;;;4.72;1.92;;;;;;;;;;6275582;22;20007;-76
2021/01/14 04:47:15;;;;;;;3.75;1.83;;;;;;;;;;6303319;22;20000;-77
2021/01/14 04:49:41;;;;;;;5.97;2.08;;;;;;;;;;6275911;22;20542;-76
2021/01/14 04:52:15;;;;;;;6.78;1.85;;;;;;;;;;6302623;22;20078;-76
2021/01/14 04:54:43;;;;;;;5.78;1.98;;;;;;;;;;6276110;22;20011;-75
2021/01/14 04:57:20;;;;;;;6.07;1.88;;;;;;;;;;6303493;22;20003;-77
2021/01/14 04:59:50;;;;;;;6.15;2.38;;;;;;;;;;6303130;22;20446;-77
2021/01/14 05:02:20;;;;;;;9.60;2.88;;;;;;;;;;6274908;22;20052;-77
2021/01/14 05:04:49;;;;;;;6.05;2.55;;;;;;;;;;6275910;22;20072;-75
2021/01/14 05:07:15;;;;;;;9.32;2.38;;;;;;;;;;6275587;22;20003;-78
2021/01/14 05:09:42;;;;;;;6.53;2.53;;;;;;;;;;6303137;22;20007;-74
2021/01/14 05:12:08;;;;;;;7.95;2.83;;;;;;;;;;6302768;22;19999;-76
2021/01/14 05:14:34;;;;;;;6.38;2.70;;;;;;;;;;6303074;22;20025;-75
2021/01/14 05:17:02;;;;;;;5.80;2.90;;;;;;;;;;6275561;22;20062;-75
2021/01/14 05:19:28;;;;;;;8.80;3.38;;;;;;;;;;6303362;22;20589;-75
2021/01/14 05:21:54;;;;;;;12.63;3.95;;;;;;;;;;6302236;22;19996;-75
2021/01/14 05:24:20;;;;;;;6.25;3.47;;;;;;;;;;6303123;22;19992;-75
2021/01/14 05:26:47;;;;;;;6.80;3.55;;;;;;;;;;6303257;22;20033;-75
2021/01/14 05:29:13;;;;;;;7.75;3.58;;;;;;;;;;6275397;22;20580;-76
2021/01/14 05:31:39;;;;;;;8.70;4.22;;;;;;;;;;6301999;22;20034;-75
2021/01/14 05:34:05;;;;;;;8.25;4.00;;;;;;;;;;6302849;22;20003;-76
2021/01/14 05:36:50;;;;;;;6.60;3.85;;;;;;;;;;6275600;22;20104;-75
2021/01/14 05:39:16;;;;;;;9.60;4.68;;;;;;;;;;6275533;22;20094;-75
2021/01/14 05:41:42;;;;;;;10.10;5.80;;;;;;;;;;6274760;22;20029;-75
2021/01/14 05:44:08;;;;;;;9.85;5.80;;;;;;;;;;6275509;22;20518;-76
2021/01/14 05:46:34;;;;;;;11.52;5.60;;;;;;;;;;6302905;22;20037;-75
2021/01/14 05:49:01;;;;;;;10.02;6.28;;;;;;;;;;6302793;22;20494;-76
2021/01/14 05:51:28;;;;;;;11.27;6.40;;;;;;;;;;6302179;22;20336;-75
2021/01/14 05:53:55;;;;;;;12.20;6.80;;;;;;;;;;6302918;22;20225;-75
2021/01/14 05:56:24;;;;;;;9.25;6.53;;;;;;;;;;6302813;22;20245;-75
2021/01/14 05:58:52;;;;;;;13.15;7.85;;;;;;;;;;6275453;22;20082;-74
2021/01/14 06:01:19;;;;;;;15.00;8.88;;;;;;;;;;6301899;22;20006;-76
2021/01/14 06:03:45;;;;;;;15.80;8.80;;;;;;;;;;6302719;22;19999;-75
2021/01/14 06:06:15;;;;;;;14.90;9.10;;;;;;;;;;6302356;22;20764;-76
2021/01/14 06:08:42;;;;;;;16.83;9.38;;;;;;;;;;6302641;22;20014;-75
2021/01/14 06:11:23;;;;;;;15.30;9.32;;;;;;;;;;6302106;22;20454;-75
2021/01/14 06:13:50;;;;;;;20.08;9.88;;;;;;;;;;6302181;22;19999;-77
2021/01/14 06:16:16;;;;;;;19.83;10.77;;;;;;;;;;6274949;22;20034;-76
2021/01/14 06:19:02;;;;;;;22.95;12.07;;;;;;;;;;6302607;22;20010;-76
2021/01/14 06:21:47;;;;;;;24.63;13.07;;;;;;;;;;6275698;22;20456;-75
2021/01/14 06:24:24;;;;;;;19.33;11.95;;;;;;;;;;6302354;22;20022;-75
2021/01/14 06:26:50;;;;;;;22.83;12.05;;;;;;;;;;6275473;22;20601;-74
2021/01/14 06:29:20;;;;;;;24.67;12.40;;;;;;;;;;6274932;22;20432;-75
2021/01/14 06:31:46;;;;;;;15.20;8.48;;;;;;;;;;6301621;22;20026;-75
2021/01/14 06:34:15;;;;;;;23.25;11.55;;;;;;;;;;6275227;22;20010;-75
2021/01/14 06:36:41;;;;;;;36.10;18.90;;;;;;;;;;6302108;22;20003;-75
2021/01/14 06:39:11;;;;;;;5.72;3.58;;;;;;;;;;6302402;22;20313;-75
2021/01/14 06:41:42;;;;;;;4.80;2.60;;;;;;;;;;6274693;22;20000;-74
2021/01/14 06:44:09;;;;;;;6.07;2.42;;;;;;;;;;6274636;22;20003;-76
2021/01/14 06:46:36;;;;;;;5.40;3.20;;;;;;;;;;6302581;22;20049;-75
2021/01/14 06:49:08;;;;;;;6.25;3.30;;;;;;;;;;6274670;22;20014;-74
2021/01/14 06:51:53;;;;;;;6.32;3.22;;;;;;;;;;6301375;22;20436;-75
2021/01/14 06:54:19;;;;;;;7.35;3.30;;;;;;;;;;6302649;22;20003;-75
2021/01/14 06:57:00;;;;;;;5.95;2.67;;;;;;;;;;6275019;22;20086;-75
2021/01/14 06:59:27;;;;;;;3.60;1.83;;;;;;;;;;6301800;22;19995;-74
2021/01/14 07:02:11;;;;;;;4.95;2.03;;;;;;;;;;6301771;22;20003;-76
2021/01/14 07:04:43;;;;;;;4.07;2.00;;;;;;;;;;6302544;22;20070;-75
2021/01/14 07:07:42;;;;;;;3.72;2.00;;;;;;;;;;6302724;22;20060;-75
2021/01/14 07:10:09;;;;;;;5.22;1.95;;;;;;;;;;6192514;22;20023;-76
2021/01/14 07:12:36;;;;;;;4.20;2.00;;;;;;;;;;6274259;22;20006;-76
2021/01/14 07:15:05;;;;;;;3.58;2.00;;;;;;;;;;6302073;22;20392;-75
2021/01/14 07:17:37;;;;;;;3.70;1.85;;;;;;;;;;6275129;22;19999;-75
2021/01/14 07:20:06;;;;;;;4.50;2.33;;;;;;;;;;6302022;22;20003;-76
2021/01/14 07:22:36;;;;;;;6.75;3.65;;;;;;;;;;6274342;22;20059;-76
2021/01/14 07:25:03;;;;;;;6.22;2.97;;;;;;;;;;6275107;22;20085;-74
2021/01/14 07:27:30;;;;;;;4.85;2.30;;;;;;;;;;6274402;22;20004;-75
2021/01/14 07:29:57;;;;;;;3.58;2.13;;;;;;;;;;6275181;22;19999;-74
2021/01/14 07:32:42;;;;;;;5.00;2.50;;;;;;;;;;6273891;22;20008;-75
2021/01/14 07:35:28;;;;;;;5.68;2.22;;;;;;;;;;6301756;22;20063;-74
2021/01/14 07:37:54;;;;;;;5.88;2.95;;;;;;;;;;6302268;22;19999;-75
2021/01/14 07:40:30;;;;;;;7.40;3.13;;;;;;;;;;6302025;22;20002;-76
2021/01/14 07:42:57;;;;;;;2.95;1.90;;;;;;;;;;6301251;22;20000;-76
2021/01/14 07:45:23;;;;;;;8.20;2.40;;;;;;;;;;6302182;22;20066;-74
2021/01/14 07:47:49;;;;;;;6.53;3.38;;;;;;;;;;6302235;22;20229;-76
2021/01/14 07:50:21;;;;;;;8.10;3.53;;;;;;;;;;6274507;22;20007;-77
2021/01/14 07:52:48;;;;;;;19.85;10.57;;;;;;;;;;6301443;22;20525;-77
2021/01/14 07:55:24;;;;;;;12.40;6.63;;;;;;;;;;6302204;22;20324;-75
2021/01/14 07:57:53;;;;;;;16.58;10.18;;;;;;;;;;6301960;22;20420;-76
2021/01/14 08:00:23;;;;;;;8.75;4.82;;;;;;;;;;6274514;22;20003;-76
2021/01/14 08:03:04;;;;;;;4.60;2.60;;;;;;;;;;6301436;22;19996;-74
2021/01/14 08:05:57;;;;;;;8.68;2.58;;;;;;;;;;6274651;22;20033;-76
2021/01/14 08:08:35;;;;;;;9.18;5.45;;;;;;;;;;6268138;22;20312;-76
2021/01/14 08:11:11;;;;;;;8.75;4.82;;;;;;;;;;6301338;22;20073;-75
2021/01/14 08:13:56;;;;;;;10.48;6.55;;;;;;;;;;6301841;22;20006;-77
2021/01/14 08:16:32;;;;;;;6.80;3.55;;;;;;;;;;6274511;22;20015;-76
2021/01/14 08:19:16;;;;;;;10.23;3.78;;;;;;;;;;6274070;22;19999;-76
2021/01/14 08:21:43;;;;;;;10.57;6.03;;;;;;;;;;6301217;22;20003;-75
2021/01/14 08:24:10;;;;;;;10.10;6.13;;;;;;;;;;6301882;22;19995;-76
2021/01/14 08:27:11;;;;;;;6.07;4.18;;;;;;;;;;6274319;22;20094;-74
2021/01/14 08:29:40;;;;;;;6.03;3.33;;;;;;;;;;6122242;23;20035;-74
2021/01/14 08:32:45;;;;;;;5.10;3.00;;;;;;;;;;6272603;22;20090;-75
2021/01/14 08:35:17;;;;;;;10.27;3.20;;;;;;;;;;6147162;23;20373;-75
2021/01/14 08:37:43;;;;;;;4.47;2.85;;;;;;;;;;6148630;23;20006;-75
2021/01/14 08:40:10;;;;;;;5.43;3.20;;;;;;;;;;6228939;22;20056;-75
2021/01/14 08:42:40;;;;;;;7.30;3.03;;;;;;;;;;6304025;22;20074;-75
2021/01/14 08:45:08;;;;;;;8.52;3.67;;;;;;;;;;6278006;22;20050;-76
2021/01/14 08:47:53;;;;;;;9.00;2.97;;;;;;;;;;6304289;22;20060;-75
2021/01/14 08:50:31;;;;;;;4.63;1.55;;;;;;;;;;6276123;22;20491;-76
2021/01/14 08:52:58;;;;;;;7.70;1.70;;;;;;;;;;6275538;22;20085;-74
2021/01/14 08:55:24;;;;;;;5.07;1.52;;;;;;;;;;6303991;22;20582;-76
2021/01/14 08:57:52;;;;;;;9.63;2.40;;;;;;;;;;6303577;22;20066;-77
2021/01/14 09:00:19;;;;;;;8.90;3.78;;;;;;;;;;6303973;22;20067;-78
2021/01/14 09:02:45;;;;;;;17.13;6.43;;;;;;;;;;6302842;22;20000;-78
2021/01/14 09:05:12;;;;;;;15.30;5.57;;;;;;;;;;6304581;22;19995;-77
2021/01/14 09:07:38;;;;;;;15.97;5.47;;;;;;;;;;6304813;22;19995;-78
2021/01/14 09:10:04;;;;;;;10.43;3.50;;;;;;;;;;6277126;22;20003;-76
2021/01/14 09:12:30;;;;;;;10.15;3.78;;;;;;;;;;6303219;22;20000;-77
2021/01/14 09:14:56;;;;;;;6.28;1.98;;;;;;;;;;6304243;22;20327;-78
2021/01/14 09:17:22;;;;;;;8.93;2.00;;;;;;;;;;6277444;22;20090;-77
2021/01/14 09:19:54;;;;;;;4.63;1.67;;;;;;;;;;6304312;22;20002;-77
2021/01/14 09:22:25;;;;;;;10.05;3.05;;;;;;;;;;6277121;22;20963;-78
2021/01/14 09:24:51;;;;;;;4.32;1.70;;;;;;;;;;6277372;22;20023;-78
2021/01/14 09:27:17;;;;;;;8.05;1.90;;;;;;;;;;6303947;22;20006;-79
2021/01/14 09:29:43;;;;;;;5.57;1.85;;;;;;;;;;6304798;22;20005;-77
2021/01/14 09:32:15;;;;;;;6.68;1.80;;;;;;;;;;6303142;22;20011;-76
2021/01/14 09:34:41;;;;;;;6.95;1.70;;;;;;;;;;6277307;22;20008;-77
2021/01/14 09:37:20;;;;;;;6.57;3.13;;;;;;;;;;6304552;22;20369;-77
2021/01/14 09:39:46;;;;;;;5.68;2.53;;;;;;;;;;6277010;22;20458;-75
2021/01/14 09:42:17;;;;;;;7.20;2.30;;;;;;;;;;6303859;22;20007;-78
2021/01/14 09:44:44;;;;;;;6.35;2.58;;;;;;;;;;6304215;22;19992;-78
2021/01/14 09:47:12;;;;;;;6.00;2.38;;;;;;;;;;6304022;22;20053;-77
2021/01/14 09:49:39;;;;;;;11.38;4.15;;;;;;;;;;6305988;22;20003;-77
2021/01/14 09:52:05;;;;;;;8.48;3.75;;;;;;;;;;6277454;22;20003;-79
2021/01/14 09:54:31;;;;;;;9.00;4.60;;;;;;;;;;6277424;22;19999;-78
2021/01/14 09:56:57;;;;;;;11.63;4.70;;;;;;;;;;6304317;22;20074;-78
2021/01/14 09:59:42;;;;;;;7.22;4.18;;;;;;;;;;6277377;22;20376;-78
2021/01/14 10:02:24;;;;;;;8.63;4.28;;;;;;;;;;6303888;22;19995;-78
2021/01/14 10:04:56;;;;;;;7.20;3.15;;;;;;;;;;6304785;22;19992;-77
2021/01/14 10:07:23;;;;;;;10.55;5.57;;;;;;;;;;6305064;22;20007;-78
2021/01/14 10:09:56;;;;;;;10.40;4.78;;;;;;;;;;6304677;22;20045;-78
2021/01/14 10:12:22;;;;;;;11.65;6.80;;;;;;;;;;6302891;22;20008;-75
2021/01/14 10:14:48;;;;;;;98.22;47.30;;;;;;;;;;6277024;22;20444;-76
2021/01/14 10:17:15;;;;;;;88.00;33.20;;;;;;;;;;6304118;22;20010;-77
2021/01/14 10:19:47;;;;;;;61.45;24.67;;;;;;;;;;6304690;22;20003;-76
2021/01/14 10:22:13;;;;;;;31.63;17.80;;;;;;;;;;6301568;22;20431;-77
2021/01/14 10:24:39;;;;;;;16.55;10.23;;;;;;;;;;6274271;22;20025;-77
2021/01/14 10:27:18;;;;;;;11.02;4.68;;;;;;;;;;6302422;22;19999;-76
2021/01/14 10:29:45;;;;;;;12.65;6.13;;;;;;;;;;6303421;22;20025;-77
2021/01/14 10:32:11;;;;;;;13.07;4.20;;;;;;;;;;6276057;22;20015;-77
2021/01/14 10:34:55;;;;;;;8.00;3.75;;;;;;;;;;6276384;22;20226;-77
2021/01/14 10:37:25;;;;;;;12.75;3.90;;;;;;;;;;6274551;22;20064;-76
2021/01/14 10:39:54;;;;;;;7.47;3.47;;;;;;;;;;6302062;22;20147;-76
2021/01/14 10:42:36;;;;;;;11.27;4.63;;;;;;;;;;6301314;22;19999;-76
2021/01/14 10:45:05;;;;;;;13.07;4.50;;;;;;;;;;6274465;22;20007;-77
2021/01/14 10:47:31;;;;;;;9.88;4.85;;;;;;;;;;6301864;22;20007;-77
2021/01/14 10:49:58;;;;;;;9.52;3.67;;;;;;;;;;6274639;22;20003;-78
2021/01/14 10:52:24;;;;;;;9.07;3.10;;;;;;;;;;6273485;22;20014;-78
2021/01/14 10:54:57;;;;;;;8.27;2.95;;;;;;;;;;6301911;22;20027;-77
2021/01/14 10:57:23;;;;;;;6.32;2.40;;;;;;;;;;6275020;22;20017;-79
2021/01/14 10:59:49;;;;;;;7.03;3.20;;;;;;;;;;6301873;22;20396;-79
2021/01/14 11:02:22;;;;;;;34.53;23.67;;;;;;;;;;6300804;22;20000;-76
2021/01/14 11:04:54;;;;;;;10.05;5.65;;;;;;;;;;6274325;22;20428;-77
2021/01/14 11:07:20;;;;;;;11.73;7.03;;;;;;;;;;6301860;22;20003;-78
2021/01/14 11:09:50;;;;;;;8.98;4.00;;;;;;;;;;6273934;22;20007;-79
2021/01/14 11:12:17;;;;;;;9.57;4.40;;;;;;;;;;6273397;22;20092;-77
2021/01/14 11:14:43;;;;;;;8.85;4.13;;;;;;;;;;6301815;22;20006;-78
2021/01/14 11:17:09;;;;;;;14.45;5.05;;;;;;;;;;6301474;22;20010;-75
2021/01/14 11:19:35;;;;;;;11.07;3.05;;;;;;;;;;6274234;22;20003;-75
2021/01/14 11:22:02;;;;;;;6.60;2.67;;;;;;;;;;6300888;22;19999;-78
2021/01/14 11:24:28;;;;;;;4.93;2.47;;;;;;;;;;6301318;22;19995;-75
2021/01/14 11:26:54;;;;;;;7.75;2.67;;;;;;;;;;6274366;22;19995;-74
2021/01/14 11:29:20;;;;;;;7.68;2.92;;;;;;;;;;6274586;22;20003;-74
2021/01/14 11:31:46;;;;;;;8.00;2.88;;;;;;;;;;6300711;22;20030;-74
2021/01/14 11:34:12;;;;;;;6.93;2.45;;;;;;;;;;6274657;22;20328;-77
2021/01/14 11:36:38;;;;;;;5.57;2.40;;;;;;;;;;6300669;22;20958;-75
2021/01/14 11:39:05;;;;;;;5.38;2.90;;;;;;;;;;6301429;22;19995;-76
2021/01/14 11:41:31;;;;;;;4.28;2.33;;;;;;;;;;6273615;22;20029;-76
2021/01/14 11:43:57;;;;;;;8.77;2.95;;;;;;;;;;6274165;22;20052;-75
2021/01/14 11:46:24;;;;;;;3.80;1.95;;;;;;;;;;6300971;22;20419;-74
2021/01/14 11:48:50;;;;;;;5.03;2.65;;;;;;;;;;6301766;22;20054;-76
2021/01/14 11:51:17;;;;;;;7.28;2.17;;;;;;;;;;6301725;22;20343;-76
2021/01/14 11:53:42;;;;;;;5.10;2.42;;;;;;;;;;6302414;22;20004;-77
2021/01/14 11:56:08;;;;;;;6.40;2.55;;;;;;;;;;6302480;22;20007;-77
2021/01/14 11:58:35;;;;;;;4.85;2.50;;;;;;;;;;6302380;22;20026;-78
2021/01/14 12:01:01;;;;;;;7.63;3.03;;;;;;;;;;6301809;22;20003;-78
2021/01/14 12:03:29;;;;;;;9.23;3.58;;;;;;;;;;6274933;22;20052;-77
2021/01/14 12:05:55;;;;;;;8.88;3.50;;;;;;;;;;6301045;22;19999;-76
2021/01/14 12:08:22;;;;;;;10.77;3.95;;;;;;;;;;6301142;22;20328;-78
2021/01/14 12:10:48;;;;;;;10.27;4.10;;;;;;;;;;6301385;22;19999;-76
2021/01/14 12:13:14;;;;;;;10.10;4.07;;;;;;;;;;6302181;22;20003;-77
2021/01/14 12:15:40;;;;;;;6.57;3.50;;;;;;;;;;6275567;22;20007;-78
2021/01/14 12:18:06;;;;;;;10.35;4.90;;;;;;;;;;6304062;22;20446;-75
2021/01/14 12:20:32;;;;;;;6.20;3.80;;;;;;;;;;6304196;22;20010;-79
2021/01/14 12:22:58;;;;;;;13.32;5.28;;;;;;;;;;6275256;22;19999;-76
2021/01/14 12:25:24;;;;;;;6.20;3.35;;;;;;;;;;6303507;22;19999;-75
2021/01/14 12:27:50;;;;;;;11.50;5.35;;;;;;;;;;6303741;22;20458;-76
2021/01/14 12:30:17;;;;;;;12.07;4.50;;;;;;;;;;6301122;22;20022;-76
2021/01/14 12:32:43;;;;;;;7.82;3.25;;;;;;;;;;6301917;22;20007;-75
2021/01/14 12:35:09;;;;;;;7.20;3.20;;;;;;;;;;6303584;22;20000;-76
2021/01/14 12:37:36;;;;;;;5.50;2.67;;;;;;;;;;6275943;22;20000;-74
2021/01/14 12:40:06;;;;;;;7.00;2.65;;;;;;;;;;6304115;22;19995;-74
2021/01/14 12:42:33;;;;;;;5.68;3.45;;;;;;;;;;6277256;22;20025;-76
2021/01/14 12:44:59;;;;;;;5.78;3.40;;;;;;;;;;6278841;22;20003;-75
2021/01/14 12:47:25;;;;;;;4.07;2.45;;;;;;;;;;6305487;22;20064;-76
2021/01/14 12:49:51;;;;;;;4.63;2.30;;;;;;;;;;6276159;22;20010;-76
2021/01/14 12:52:17;;;;;;;8.05;2.70;;;;;;;;;;6301629;22;20010;-75
2021/01/14 12:54:43;;;;;;;5.50;2.47;;;;;;;;;;6302599;22;20003;-74
2021/01/14 12:57:09;;;;;;;7.13;2.45;;;;;;;;;;6303126;22;20424;-74
2021/01/14 12:59:35;;;;;;;5.30;2.20;;;;;;;;;;6302643;22;20071;-76
2021/01/14 13:02:04;;;;;;;3.83;2.28;;;;;;;;;;6301542;22;20019;-76
2021/01/14 13:04:30;;;;;;;5.47;3.10;;;;;;;;;;6302942;22;19999;-74
2021/01/14 13:06:56;;;;;;;7.20;2.55;;;;;;;;;;6275239;22;20801;-74
2021/01/14 13:09:22;;;;;;;4.25;2.35;;;;;;;;;;6275006;22;20017;-74
2021/01/14 13:11:48;;;;;;;7.18;2.60;;;;;;;;;;6302096;22;20019;-80
2021/01/14 13:14:14;;;;;;;5.22;2.47;;;;;;;;;;6275568;22;20506;-76
2021/01/14 13:16:42;;;;;;;6.43;2.70;;;;;;;;;;6275009;22;20003;-75
2021/01/14 13:19:12;;;;;;;4.35;2.47;;;;;;;;;;6275707;22;20027;-78
2021/01/14 13:21:41;;;;;;;6.70;2.20;;;;;;;;;;6274663;22;20004;-78
2021/01/14 13:24:08;;;;;;;6.25;2.20;;;;;;;;;;6275074;22;20004;-79
2021/01/14 13:26:34;;;;;;;5.43;2.22;;;;;;;;;;6275889;22;20009;-77
2021/01/14 13:29:01;;;;;;;7.00;3.00;;;;;;;;;;6303053;22;20070;-77
2021/01/14 13:31:27;;;;;;;6.95;2.20;;;;;;;;;;6301924;22;20090;-75
2021/01/14 13:33:54;;;;;;;7.47;1.80;;;;;;;;;;6275808;22;20007;-76
2021/01/14 13:36:20;;;;;;;7.22;2.22;;;;;;;;;;6302136;22;20026;-75
2021/01/14 13:38:46;;;;;;;5.30;2.30;;;;;;;;;;6302305;22;20094;-77
2021/01/14 13:41:12;;;;;;;4.82;2.20;;;;;;;;;;6275587;22;20003;-75
2021/01/14 13:43:38;;;;;;;5.57;2.40;;;;;;;;;;6276111;22;20343;-76
2021/01/14 13:46:05;;;;;;;4.00;1.92;;;;;;;;;;6303313;22;20000;-76
2021/01/14 13:48:31;;;;;;;3.92;1.90;;;;;;;;;;6275414;22;20007;-75
2021/01/14 13:50:57;;;;;;;4.30;1.80;;;;;;;;;;6301946;22;20044;-76
2021/01/14 13:53:23;;;;;;;3.40;1.85;;;;;;;;;;6302219;22;20030;-76
2021/01/14 13:55:50;;;;;;;3.28;2.10;;;;;;;;;;6274315;22;20549;-75
2021/01/14 13:58:16;;;;;;;5.80;1.90;;;;;;;;;;6275341;22;20007;-77
2021/01/14 14:00:42;;;;;;;3.75;1.70;;;;;;;;;;6275119;22;20431;-76
2021/01/14 14:03:08;;;;;;;6.40;1.90;;;;;;;;;;6301898;22;20064;-75
2021/01/14 14:05:34;;;;;;;3.85;1.90;;;;;;;;;;6301432;22;20003;-76
2021/01/14 14:08:00;;;;;;;3.50;1.95;;;;;;;;;;6295743;22;19999;-74
2021/01/14 14:10:26;;;;;;;5.30;2.10;;;;;;;;;;6271047;22;20031;-75
2021/01/14 14:12:52;;;;;;;5.38;1.83;;;;;;;;;;6301249;22;20077;-76
2021/01/14 14:15:18;;;;;;;4.82;1.98;;;;;;;;;;6274876;22;20063;-76
2021/01/14 14:17:44;;;;;;;3.35;1.98;;;;;;;;;;6302191;22;19999;-76
2021/01/14 14:20:11;;;;;;;5.75;1.80;;;;;;;;;;6301969;22;20089;-79
2021/01/14 14:22:38;;;;;;;3.13;1.98;;;;;;;;;;6273570;22;20000;-77
2021/01/14 14:25:06;;;;;;;3.25;1.38;;;;;;;;;;6274069;22;20014;-78
2021/01/14 14:27:32;;;;;;;3.10;1.60;;;;;;;;;;6301584;22;20042;-75
2021/01/14 14:29:58;;;;;;;5.57;1.40;;;;;;;;;;6301694;22;20374;-78
2021/01/14 14:32:24;;;;;;;7.13;1.40;;;;;;;;;;6301093;22;20007;-78
2021/01/14 14:34:50;;;;;;;4.03;1.40;;;;;;;;;;6300953;22;20003;-77
2021/01/14 14:37:16;;;;;;;3.35;1.50;;;;;;;;;;6300921;22;20420;-77
2021/01/14 14:39:42;;;;;;;6.38;1.75;;;;;;;;;;6274382;22;19999;-79
2021/01/14 14:42:08;;;;;;;4.68;2.42;;;;;;;;;;6272577;22;19999;-77